Permanente, California
Current Conditions -  °F | °C
As of 11:56 AM on Monday 24 Nov 2014 (Local Time) from KNUQ Reporting Station
Clear Clear  
Wind Chill: 18°   Ceiling: Unl
Heat Index: 18°   Visibility: 10mi
Dew Point:   Wind: 6mph
Humidity: 33%   Direction: NA
Pressure: 30.38"   Gusts: NA
Location:  37.305°N, 122.094°W
Report Text: KNUQ 241956Z AUTO VRB05KT 10SM CLR 18/01 A3038 RMK AO2 SLP290 T01780011 TSNO
Loading
Personal Weather Stations






























Interactive Weather Map New forecast layout! Learn more

10-Day Weather Forecast

Advertisements
Track Severe Weather on mobile